createdAt,value
2022-12-19T16:48:40.512Z,28.58
2022-12-19T16:49:40.475Z,28.29
2022-12-19T16:50:40.436Z,28.23
2022-12-19T16:51:40.437Z,28.16
2022-12-19T16:52:42.665Z,28.14
2022-12-19T16:53:40.484Z,28.20
2022-12-19T16:54:40.445Z,28.19
2022-12-19T16:55:40.461Z,28.26
2022-12-19T16:56:40.432Z,28.29
2022-12-19T16:57:40.436Z,28.89
2022-12-19T16:58:43.299Z,28.38
2022-12-19T16:59:40.478Z,28.30
2022-12-19T17:00:40.418Z,28.15
2022-12-19T17:01:40.614Z,27.94
2022-12-19T17:02:40.628Z,27.87
2022-12-19T17:03:40.437Z,27.79
2022-12-19T17:04:42.675Z,27.91
2022-12-19T17:05:40.410Z,27.75
2022-12-19T17:06:40.402Z,28.06
2022-12-19T17:07:40.384Z,28.20
2022-12-19T17:08:40.425Z,28.19
2022-12-19T17:09:40.380Z,28.20
2022-12-19T17:10:40.380Z,28.13
2022-12-19T17:11:40.366Z,28.12
2022-12-19T17:12:40.342Z,28.15
2022-12-19T17:13:40.361Z,28.11
2022-12-19T17:14:40.319Z,28.24
2022-12-19T17:15:40.323Z,28.10
2022-12-19T17:16:40.316Z,28.18
2022-12-19T17:17:40.306Z,28.17
2022-12-19T17:18:40.339Z,28.09
2022-12-19T17:19:40.288Z,28.10
2022-12-19T17:20:40.270Z,28.12
2022-12-19T17:21:40.271Z,28.15
2022-12-19T17:22:40.246Z,27.95
2022-12-19T17:23:40.262Z,28.01
2022-12-19T17:24:40.247Z,28.09
2022-12-19T17:25:40.225Z,28.09
2022-12-19T17:26:40.232Z,28.09
2022-12-19T17:27:40.215Z,28.04
2022-12-19T17:28:40.221Z,28.09
2022-12-19T17:29:40.198Z,28.00
2022-12-19T17:30:40.239Z,28.06
2022-12-19T17:31:40.325Z,28.12
2022-12-19T17:32:40.221Z,28.08
2022-12-19T17:33:40.171Z,28.05
2022-12-19T17:34:40.132Z,28.29
2022-12-19T17:35:40.149Z,28.25
2022-12-19T17:36:40.117Z,28.27
2022-12-19T17:37:40.122Z,28.28
2022-12-19T17:38:40.097Z,28.21
2022-12-19T17:39:40.104Z,28.21
2022-12-19T17:40:40.087Z,28.18
2022-12-19T17:41:40.087Z,27.95
2022-12-19T17:42:40.065Z,28.03
2022-12-19T21:24:11.343Z,53.74
2022-12-19T21:25:11.838Z,53.82
2022-12-19T21:26:11.247Z,46.89
2022-12-19T21:27:11.549Z,42.00
2022-12-19T21:28:11.156Z,40.15
2022-12-19T21:31:11.126Z,35.00
2022-12-19T21:32:16.761Z,37.44
2022-12-19T21:35:10.935Z,47.78
2022-12-19T21:37:11.425Z,48.67
2022-12-19T21:38:10.719Z,48.37
2022-12-19T21:40:10.615Z,47.87
2022-12-19T21:42:11.961Z,47.83
2022-12-19T21:43:12.248Z,49.19
2022-12-19T21:44:10.374Z,48.54
2022-12-19T21:45:10.359Z,48.36
2022-12-19T21:47:10.253Z,48.49
2022-12-19T21:48:10.172Z,48.65
2022-12-19T22:04:09.013Z,49.00
2022-12-19T22:05:08.851Z,49.02
2022-12-19T22:06:08.841Z,49.05
2022-12-19T22:10:08.571Z,49.21
2022-12-19T22:24:07.649Z,49.39
2022-12-19T22:26:07.473Z,49.45
2022-12-19T22:29:07.295Z,49.56
2022-12-19T22:33:06.997Z,49.49
2022-12-19T22:51:05.816Z,49.73
2022-12-19T22:53:11.042Z,49.70
2022-12-19T23:07:04.678Z,49.78
2022-12-19T23:08:04.601Z,49.77
2022-12-19T23:10:06.203Z,49.86
2022-12-19T23:11:04.364Z,49.80
2022-12-19T23:12:05.224Z,49.86
2022-12-19T23:13:04.203Z,49.85
2022-12-19T23:14:04.209Z,49.86
2022-12-19T23:15:04.109Z,49.85
2022-12-19T23:16:04.001Z,49.93
2022-12-19T23:17:04.070Z,49.96
2022-12-19T23:18:04.205Z,49.94
2022-12-19T23:19:04.223Z,49.91
2022-12-19T23:20:03.708Z,49.90
2022-12-19T23:21:03.650Z,49.91
2022-12-19T23:22:04.540Z,49.97
2022-12-19T23:23:03.545Z,49.96
2022-12-19T23:24:03.464Z,49.95
2022-12-19T23:25:03.353Z,49.99
2022-12-19T23:26:11.306Z,49.99
2022-12-19T23:27:05.738Z,50.08
2022-12-19T23:30:04.705Z,50.11
2022-12-19T23:31:04.709Z,50.17
2022-12-19T23:32:04.779Z,50.12
2022-12-19T23:45:03.172Z,50.29
